createdAt,value
2023-04-29T00:00:00.470Z,9.3
2023-04-29T00:15:00.456Z,9.1
2023-04-29T00:30:00.413Z,9.1
2023-04-29T00:45:00.425Z,9.1
2023-04-29T01:00:00.513Z,9.0
2023-04-29T01:15:00.415Z,8.9
2023-04-29T01:30:00.436Z,8.9
2023-04-29T01:45:00.419Z,8.7
2023-04-29T02:00:00.488Z,8.5
2023-04-29T02:15:00.462Z,8.4
2023-04-29T02:30:00.414Z,8.4
2023-04-29T02:45:00.410Z,8.4
2023-04-29T03:00:00.488Z,8.1
2023-04-29T03:15:00.467Z,7.9
2023-04-29T03:30:00.413Z,7.6
2023-04-29T03:45:00.395Z,7.6
2023-04-29T04:00:00.521Z,7.5
2023-04-29T04:15:00.420Z,7.4
2023-04-29T04:30:00.423Z,7.4
2023-04-29T04:45:00.419Z,7.4
2023-04-29T05:00:00.618Z,7.6
2023-04-29T05:15:00.411Z,8.0
2023-04-29T05:30:00.401Z,8.4
2023-04-29T05:45:00.405Z,9.1
2023-04-29T06:00:00.504Z,10.1
2023-04-29T06:15:00.429Z,10.9
2023-04-29T06:30:00.434Z,11.4
2023-04-29T06:45:00.391Z,12.0
2023-04-29T07:00:00.470Z,12.6
2023-04-29T07:15:00.402Z,13.0
2023-04-29T07:30:00.415Z,14.0
2023-04-29T07:45:00.405Z,14.8
2023-04-29T08:00:00.454Z,15.6
2023-04-29T08:15:00.416Z,16.1
2023-04-29T08:30:00.435Z,16.3
2023-04-29T08:45:00.406Z,16.5
2023-04-29T09:00:00.496Z,16.8
2023-04-29T09:15:00.480Z,17.0
2023-04-29T09:30:00.403Z,17.3
2023-04-29T09:45:00.636Z,17.7
2023-04-29T10:00:00.656Z,18.4
2023-04-29T10:15:00.413Z,18.8
2023-04-29T10:30:00.415Z,19.1
2023-04-29T10:45:00.450Z,19.3
2023-04-29T11:00:00.432Z,19.6
2023-04-29T11:15:00.469Z,19.8
2023-04-29T11:30:00.482Z,19.9
2023-04-29T11:45:00.676Z,19.9
2023-04-29T12:00:00.386Z,19.8
2023-04-29T12:15:00.386Z,19.4
2023-04-29T12:30:00.497Z,17.6
2023-04-29T12:45:00.477Z,17.2
2023-04-29T13:00:00.423Z,17.4
2023-04-29T13:15:00.453Z,17.8
2023-04-29T13:30:00.416Z,18.2
2023-04-29T13:45:00.691Z,18.0
2023-04-29T14:00:00.667Z,16.8
2023-04-29T14:15:00.835Z,16.3
2023-04-29T14:30:00.438Z,16.1
2023-04-29T14:45:00.411Z,16.2
2023-04-29T15:00:00.490Z,16.1
2023-04-29T15:15:00.417Z,16.0
2023-04-29T15:30:00.427Z,16.2
2023-04-29T15:45:00.399Z,17.0
2023-04-29T16:00:00.451Z,17.7
2023-04-29T16:15:00.495Z,17.7
2023-04-29T16:30:00.788Z,17.2
2023-04-29T16:45:00.416Z,16.8
2023-04-29T17:00:00.439Z,16.4
2023-04-29T17:15:00.401Z,16.0
2023-04-29T17:30:00.507Z,15.8
2023-04-29T17:45:00.438Z,15.5
2023-04-29T18:00:00.412Z,15.2
2023-04-29T18:15:00.411Z,14.9
2023-04-29T18:30:00.419Z,14.6
2023-04-29T18:45:00.473Z,14.3
2023-04-29T19:00:00.446Z,14.1
2023-04-29T19:15:00.462Z,13.8
2023-04-29T19:30:00.440Z,13.5
2023-04-29T19:45:00.819Z,13.4
2023-04-29T20:00:00.434Z,13.4
2023-04-29T20:15:00.415Z,13.3
2023-04-29T20:30:00.447Z,13.1
2023-04-29T20:45:00.472Z,12.8
2023-04-29T21:00:00.421Z,12.6
2023-04-29T21:15:00.480Z,12.2
2023-04-29T21:30:00.406Z,11.8
2023-04-29T21:45:00.724Z,11.4
2023-04-29T22:00:00.413Z,11.0
2023-04-29T22:15:00.455Z,10.7
2023-04-29T22:30:00.388Z,10.4
2023-04-29T22:45:00.468Z,10.1
2023-04-29T23:00:00.418Z,9.8
2023-04-29T23:15:00.448Z,9.6
2023-04-29T23:30:00.432Z,9.4
2023-04-29T23:45:00.552Z,9.3
